Terminal Aerodrome Forecast
Issued by NWS Albany, NY

Home | Current Version | Previous Version | Text Only | Print | Product List | Glossary On
Versions: 1 2 3 4 5 6 7 8 9 10 11 12 13 14 15 16 17 18 19 20 21 22 23 24 25 26 27 28 29 30 31
000
FTUS41 KALY 270124 AAA
TAFALB
TAF AMD
KALB 270124Z 2701/2724 33007KT 6SM -RA BR SCT015 OVC040
      TEMPO 2701/2703 4SM -RA BR BKN015 OVC040
     FM270300 34008KT 6SM BR VCSH SCT025 OVC045
     FM270600 32005KT P6SM VCSH BKN035 OVC070
     FM271200 30010KT P6SM BKN040=

USA.gov is the U.S. government's official web portal to all federal, state and local government web resources and services.